Terminal Aerodrome Forecast
Issued by NWS

Home | Current Version | Previous Version | Text Only | Print | Product List | Glossary On
Versions: 1 2 3 4 5 6 7 8 9 10 11 12 13 14 15 16 17 18 19
686
FTUS43 KILX 200538
TAFBMI
TAF
KBMI 200538Z 2006/2106 16010KT 2SM BR SCT003
      TEMPO 2006/2007 3/4SM BR BKN003
     FM200700 15010KT 1/4SM FG VV002
     FM201500 15015KT 2SM BR OVC004
     FM201700 16016G20KT 6SM BR OVC010
     FM201900 16014G22KT P6SM SCT040 BKN200
     FM210200 18015G22KT 5SM -SHRA BR OVC030=

USA.gov is the U.S. government's official web portal to all federal, state and local government web resources and services.